Terminal Aerodrome Forecast
Issued by NWS

Home | Current Version | Previous Version | Graphics & Text | Print | Product List | Glossary On
Versions: 1 2 3 4 5 6 7 8 9 10 11 12 13 14 15 16 17 18 19 20 21 22 23 24 25 26 27 28 29 30 31 32 33 34
581
FTUS45 KGGW 201728
TAFOLF
TAF
KOLF 201728Z 2018/2118 26008KT P6SM SKC
     FM202300 11007KT P6SM FEW090 SCT110
     FM210500 VRB04KT P6SM BKN060 WS020/25040KT
     FM211300 25007KT P6SM FEW020 SCT025=

USA.gov is the U.S. government's official web portal to all federal, state and local government web resources and services.